Time;durP1;ratioP1;P1;durP2;ratioP2;P2;SDS_P1;SDS_P2;PMS_P1;PMS_P2;Temp;Humidity;BMP_temperature;BMP_pressure;BME280_temperature;BME280_humidity;BME280_pressure;Samples;Min_cycle;Max_cycle;Signal;HPM_P1;HPM_P2
2021/05/01 00:00:07;;;;;;;6.63;4.60;;;5.10;99.90;;;;;;6237794;23;20027;-93
2021/05/01 00:02:38;;;;;;;6.57;4.78;;;5.10;99.90;;;;;;6207696;23;20016;-93
2021/05/01 00:05:04;;;;;;;6.35;4.88;;;5.10;99.90;;;;;;6259001;23;20011;-93
2021/05/01 00:07:30;;;;;;;8.98;4.75;;;5.10;99.90;;;;;;6257797;23;20000;-94
2021/05/01 00:09:57;;;;;;;5.65;4.60;;;5.20;99.90;;;;;;6256864;23;20004;-94
2021/05/01 00:12:24;;;;;;;8.88;4.82;;;5.20;99.90;;;;;;6230921;23;20086;-93
2021/05/01 00:14:50;;;;;;;7.13;4.45;;;5.20;99.90;;;;;;6256775;23;20071;-94
2021/05/01 00:17:16;;;;;;;5.97;4.63;;;5.20;99.90;;;;;;6230626;23;20012;-93
2021/05/01 00:19:44;;;;;;;7.10;5.03;;;5.20;99.90;;;;;;6256659;23;20030;-94
2021/05/01 00:22:12;;;;;;;7.95;5.07;;;5.20;99.90;;;;;;6253632;23;20032;-95
2021/05/01 00:24:38;;;;;;;8.10;5.05;;;5.10;99.90;;;;;;6228843;23;20012;-92
2021/05/01 00:27:04;;;;;;;9.60;4.60;;;5.10;99.90;;;;;;6228193;23;20427;-93
2021/05/01 00:29:30;;;;;;;7.25;5.43;;;5.10;99.90;;;;;;6227844;23;20435;-93
2021/05/01 00:31:57;;;;;;;8.00;4.93;;;5.10;99.90;;;;;;6252369;23;20004;-93
2021/05/01 00:34:25;;;;;;;7.03;4.95;;;5.10;99.90;;;;;;6253419;23;20000;-92
2021/05/01 00:36:52;;;;;;;6.07;4.28;;;5.00;99.90;;;;;;6225602;23;20062;-94
2021/05/01 00:39:19;;;;;;;6.40;4.30;;;5.00;99.90;;;;;;6227417;23;20016;-93
2021/05/01 00:41:57;;;;;;;6.20;4.38;;;5.00;99.90;;;;;;6228569;23;20012;-94
2021/05/01 00:44:23;;;;;;;5.60;4.45;;;4.90;99.90;;;;;;6204922;23;20019;-93
2021/05/01 00:46:50;;;;;;;4.68;3.70;;;4.90;99.90;;;;;;6227584;23;20071;-93
2021/05/01 00:49:16;;;;;;;4.55;3.85;;;4.90;99.90;;;;;;6202101;23;20020;-94
2021/05/01 00:51:43;;;;;;;6.43;3.75;;;4.90;99.90;;;;;;6227683;23;20004;-94
2021/05/01 00:54:10;;;;;;;6.63;3.75;;;4.80;99.90;;;;;;6225883;23;20072;-93
2021/05/01 00:56:37;;;;;;;8.10;3.78;;;4.80;99.90;;;;;;6225612;23;20050;-94
2021/05/01 00:59:05;;;;;;;7.32;4.30;;;4.80;99.90;;;;;;6254243;23;20059;-94
2021/05/01 01:01:32;;;;;;;8.38;4.18;;;4.80;99.90;;;;;;6256030;23;20036;-94
2021/05/01 01:03:58;;;;;;;6.30;4.35;;;4.80;99.90;;;;;;6256019;23;20004;-94
2021/05/01 01:06:25;;;;;;;6.75;4.38;;;4.80;99.90;;;;;;6255200;23;20321;-93
2021/05/01 01:08:51;;;;;;;5.65;4.00;;;4.70;99.90;;;;;;6256729;23;20038;-94
2021/05/01 01:11:16;;;;;;;4.32;3.13;;;4.70;99.90;;;;;;6212811;23;20009;-92
2021/05/01 01:13:42;;;;;;;7.75;4.43;;;4.70;99.90;;;;;;6216842;23;20068;-92
2021/05/01 01:16:08;;;;;;;10.95;4.75;;;4.70;99.90;;;;;;6269129;23;20000;-92
2021/05/01 01:18:35;;;;;;;7.93;4.55;;;4.60;99.90;;;;;;6269913;23;20024;-94
2021/05/01 01:21:04;;;;;;;5.40;4.32;;;4.60;99.90;;;;;;6244648;22;20007;-93
2021/05/01 01:23:31;;;;;;;7.28;4.90;;;4.60;99.90;;;;;;6261265;23;20030;-94
2021/05/01 01:26:00;;;;;;;5.97;4.57;;;4.60;99.90;;;;;;6253597;22;20012;-93
2021/05/01 01:28:27;;;;;;;6.75;4.80;;;4.60;99.90;;;;;;6229524;23;20006;-93
2021/05/01 01:30:53;;;;;;;7.82;4.82;;;4.50;99.90;;;;;;6254721;23;20016;-93
2021/05/01 01:33:19;;;;;;;5.50;4.28;;;4.50;99.90;;;;;;6222474;23;20090;-93
2021/05/01 01:35:45;;;;;;;6.80;4.60;;;4.50;99.90;;;;;;6253554;23;20427;-94
2021/05/01 01:38:11;;;;;;;6.78;4.85;;;4.50;99.90;;;;;;6254745;23;20026;-94
2021/05/01 01:40:38;;;;;;;7.32;4.32;;;4.50;99.90;;;;;;6254352;22;20008;-93
2021/05/01 01:43:05;;;;;;;7.25;4.75;;;4.40;99.90;;;;;;6227935;23;20312;-94
2021/05/01 01:45:31;;;;;;;6.60;4.72;;;4.50;99.90;;;;;;6228085;23;20031;-93
2021/05/01 01:47:57;;;;;;;7.18;4.88;;;4.40;99.90;;;;;;6255225;23;20001;-93
2021/05/01 01:50:24;;;;;;;6.60;4.38;;;4.40;99.90;;;;;;6235871;23;20004;-93
2021/05/01 01:52:51;;;;;;;7.25;5.35;;;4.30;99.90;;;;;;6260025;23;20000;-94
2021/05/01 01:55:20;;;;;;;7.60;5.15;;;4.30;99.90;;;;;;6260905;23;20008;-93
2021/05/01 01:57:46;;;;;;;6.30;5.05;;;4.20;99.90;;;;;;6211844;23;20094;-94
2021/05/01 02:00:15;;;;;;;6.40;4.85;;;4.20;99.90;;;;;;6261330;23;20008;-93
2021/05/01 02:02:41;;;;;;;6.97;5.28;;;4.10;99.90;;;;;;6259141;22;20005;-94
2021/05/01 02:05:08;;;;;;;8.02;5.30;;;4.10;99.90;;;;;;6252673;23;20011;-93
2021/05/01 02:07:34;;;;;;;6.18;5.03;;;4.10;99.90;;;;;;6227768;23;20001;-93
2021/05/01 02:10:00;;;;;;;7.95;5.20;;;4.10;99.90;;;;;;6254482;23;20032;-93
2021/05/01 02:12:26;;;;;;;5.57;4.10;;;4.10;99.90;;;;;;6227573;23;20004;-93
2021/05/01 02:14:51;;;;;;;4.97;3.42;;;4.10;99.90;;;;;;6253875;23;20431;-93
2021/05/01 02:17:17;;;;;;;8.95;5.15;;;4.10;99.90;;;;;;6227967;23;20372;-94
2021/05/01 02:19:42;;;;;;;9.55;5.75;;;4.10;99.90;;;;;;6232709;23;20023;-93
2021/05/01 02:22:08;;;;;;;5.38;3.78;;;4.10;99.90;;;;;;6231420;23;20038;-93
2021/05/01 02:24:34;;;;;;;10.52;6.07;;;4.10;99.90;;;;;;6258321;22;20013;-94
2021/05/01 02:27:00;;;;;;;12.55;6.40;;;4.10;99.90;;;;;;6258616;23;20012;-93
2021/05/01 02:29:26;;;;;;;8.27;5.75;;;4.10;99.90;;;;;;6228283;23;20000;-94
2021/05/01 02:31:52;;;;;;;9.93;6.75;;;4.10;99.90;;;;;;6252212;23;20317;-94
2021/05/01 02:34:18;;;;;;;11.50;6.90;;;4.00;99.90;;;;;;6250728;23;20011;-93
2021/05/01 02:36:44;;;;;;;9.93;6.28;;;3.90;99.90;;;;;;6251404;23;20008;-93
2021/05/01 02:39:09;;;;;;;11.57;5.82;;;3.90;99.90;;;;;;6252481;23;20007;-94
2021/05/01 02:41:35;;;;;;;10.50;6.57;;;3.80;99.90;;;;;;6254104;22;20007;-94
2021/05/01 02:44:01;;;;;;;8.15;6.00;;;3.80;99.90;;;;;;6227175;23;20007;-93
2021/05/01 02:46:27;;;;;;;7.78;5.50;;;3.80;99.90;;;;;;6226988;23;20043;-92
2021/05/01 02:48:53;;;;;;;13.48;6.55;;;3.80;99.90;;;;;;6225771;23;20012;-93
2021/05/01 02:51:18;;;;;;;12.35;6.57;;;3.80;99.90;;;;;;6225772;23;20010;-93
2021/05/01 02:53:44;;;;;;;11.38;6.28;;;3.80;99.90;;;;;;6252726;23;20020;-93
2021/05/01 02:56:10;;;;;;;8.27;6.20;;;3.80;99.90;;;;;;6253348;23;20416;-94
2021/05/01 02:58:36;;;;;;;15.18;7.03;;;3.80;99.90;;;;;;6227303;23;20019;-93
2021/05/01 03:01:01;;;;;;;15.65;8.75;;;3.70;99.90;;;;;;6226811;23;20435;-93
2021/05/01 03:03:27;;;;;;;9.75;6.43;;;3.70;99.90;;;;;;6228955;23;20031;-93
2021/05/01 03:05:53;;;;;;;13.50;7.47;;;3.70;99.90;;;;;;6251505;22;20098;-92
2021/05/01 03:08:18;;;;;;;9.07;6.20;;;3.60;99.90;;;;;;6223378;23;20008;-94
2021/05/01 03:10:45;;;;;;;11.68;7.13;;;3.60;99.90;;;;;;6250911;23;20054;-94
2021/05/01 03:13:11;;;;;;;11.00;7.32;;;3.70;99.90;;;;;;6226011;23;20351;-93
2021/05/01 03:15:37;;;;;;;9.20;6.78;;;3.70;99.90;;;;;;6249417;22;20004;-93
2021/05/01 03:18:03;;;;;;;10.95;7.03;;;3.70;99.90;;;;;;6251033;23;20018;-92
2021/05/01 03:20:29;;;;;;;15.15;8.60;;;3.70;99.90;;;;;;6248686;23;20066;-93
2021/05/01 03:22:55;;;;;;;10.55;7.47;;;3.70;99.90;;;;;;6250158;23;20008;-93
2021/05/01 03:25:20;;;;;;;10.05;6.65;;;3.70;99.90;;;;;;6221228;23;20016;-92
2021/05/01 03:27:46;;;;;;;18.48;9.05;;;3.70;99.90;;;;;;6222316;23;20000;-93
2021/05/01 03:30:15;;;;;;;10.70;7.05;;;3.70;99.90;;;;;;6230148;23;20009;-93
2021/05/01 03:32:41;;;;;;;12.95;8.25;;;3.70;99.90;;;;;;6230513;23;20015;-93
2021/05/01 03:35:09;;;;;;;11.18;7.30;;;3.80;99.90;;;;;;6228777;23;20029;-93
2021/05/01 03:37:36;;;;;;;9.85;5.88;;;3.70;99.90;;;;;;6229630;23;20058;-92
2021/05/01 03:40:03;;;;;;;10.23;6.93;;;3.70;99.90;;;;;;6226067;23;20088;-94
2021/05/01 03:42:29;;;;;;;10.07;5.97;;;3.70;99.90;;;;;;6223257;23;20000;-93
2021/05/01 03:44:55;;;;;;;15.48;7.20;;;3.70;99.90;;;;;;6222655;23;20020;-92
2021/05/01 03:47:20;;;;;;;11.48;7.78;;;3.70;99.90;;;;;;6221373;23;20031;-93
2021/05/01 03:49:46;;;;;;;11.43;5.78;;;3.70;99.90;;;;;;6221240;23;20088;-93
2021/05/01 03:52:12;;;;;;;12.48;7.53;;;3.70;99.90;;;;;;6220064;23;20005;-93
2021/05/01 03:54:37;;;;;;;12.77;5.72;;;3.70;99.90;;;;;;6221388;23;20012;-93
2021/05/01 03:57:03;;;;;;;10.70;8.18;;;3.60;99.90;;;;;;6219790;23;20000;-94
2021/05/01 03:59:29;;;;;;;15.23;7.85;;;3.60;99.90;;;;;;6219482;23;20031;-94
2021/05/01 04:01:54;;;;;;;16.42;7.63;;;3.60;99.90;;;;;;6220453;23;20067;-94
2021/05/01 04:04:26;;;;;;;10.57;6.97;;;3.60;99.90;;;;;;6221790;23;20001;-93
2021/05/01 04:06:51;;;;;;;11.23;8.02;;;3.60;99.90;;;;;;6225235;23;20498;-93
2021/05/01 04:09:18;;;;;;;17.42;8.65;;;3.60;99.90;;;;;;6223583;23;20004;-92
2021/05/01 04:11:46;;;;;;;14.15;8.23;;;3.50;99.90;;;;;;6225411;23;20343;-94
2021/05/01 04:14:12;;;;;;;15.40;8.85;;;3.50;99.90;;;;;;6227716;23;20009;-94
2021/05/01 04:16:37;;;;;;;13.52;8.45;;;3.50;99.90;;;;;;6227184;23;20012;-94
2021/05/01 04:19:03;;;;;;;15.40;8.20;;;3.50;99.90;;;;;;6226005;23;20017;-93
2021/05/01 04:21:29;;;;;;;9.70;6.00;;;3.50;99.90;;;;;;6216342;23;20474;-95
